Time;durP1;ratioP1;P1;durP2;ratioP2;P2;SDS_P1;SDS_P2;PMS_P1;PMS_P2;Temp;Humidity;BMP_temperature;BMP_pressure;BME280_temperature;BME280_humidity;BME280_pressure;Samples;Min_cycle;Max_cycle;Signal;HPM_P1;HPM_P2
2022/03/15 00:01:25;;;;;;;126.20;47.30;;;;;;;0.35;43.04;100139.59;107705;1282;22679;-89
2022/03/15 00:03:52;;;;;;;128.40;48.30;;;;;;;0.25;43.48;100133.93;107681;1282;23001;-72
2022/03/15 00:06:20;;;;;;;125.20;48.00;;;;;;;0.16;44.00;100128.45;107662;1282;23170;-72
2022/03/15 00:08:48;;;;;;;108.30;45.30;;;;;;;0.10;44.06;100133.58;107695;1282;22638;-72
2022/03/15 00:11:15;;;;;;;111.00;44.50;;;;;;;0.05;43.86;100139.40;107729;1282;23012;-72
2022/03/15 00:13:43;;;;;;;111.00;42.20;;;;;;;-0.02;44.97;100139.23;107751;1281;24237;-72
2022/03/15 00:16:10;;;;;;;88.20;36.10;;;;;;;-0.06;44.56;100135.95;107690;1282;22629;-71
2022/03/15 00:18:38;;;;;;;95.40;41.50;;;;;;;-0.10;44.08;100132.38;107671;1282;24363;-80
2022/03/15 00:21:10;;;;;;;109.40;44.40;;;;;;;-0.14;44.33;100131.84;107688;1282;22649;-72
2022/03/15 00:23:38;;;;;;;93.30;38.30;;;;;;;-0.19;44.59;100131.33;107700;1282;22543;-72
2022/03/15 00:26:06;;;;;;;80.10;33.90;;;;;;;-0.23;44.77;100126.85;107691;1282;22595;-71
2022/03/15 00:28:34;;;;;;;74.90;32.00;;;;;;;-0.27;45.34;100120.00;107650;1282;22611;-76
2022/03/15 00:31:03;;;;;;;70.10;29.00;;;;;;;-0.31;44.80;100120.68;107670;1282;22588;-72
2022/03/15 00:33:30;;;;;;;66.00;28.00;;;;;;;-0.32;44.96;100120.66;107669;1282;22779;-70
2022/03/15 00:36:01;;;;;;;62.40;25.40;;;;;;;-0.33;45.64;100125.29;107491;1282;22565;-70
2022/03/15 00:38:28;;;;;;;60.50;26.20;;;;;;;-0.33;45.42;100112.27;107729;1282;22493;-71
2022/03/15 00:40:56;;;;;;;72.00;29.80;;;;;;;-0.31;45.05;100109.38;107679;1281;22605;-71
2022/03/15 00:43:23;;;;;;;61.20;25.70;;;;;;;-0.29;44.69;100103.23;107673;1282;22741;-73
2022/03/15 00:45:50;;;;;;;65.30;28.20;;;;;;;-0.24;44.74;100102.02;107696;1282;22636;-73
2022/03/15 00:48:19;;;;;;;101.60;41.90;;;;;;;-0.24;45.35;100105.11;107690;1281;22575;-82
2022/03/15 00:50:46;;;;;;;98.40;40.10;;;;;;;-0.35;46.66;100103.55;107645;1282;22558;-71
2022/03/15 00:53:13;;;;;;;96.00;37.70;;;;;;;-0.41;45.65;100102.85;107664;1282;22589;-71
2022/03/15 00:55:40;;;;;;;95.70;37.40;;;;;;;-0.46;46.62;100102.84;107686;1282;25341;-75
2022/03/15 00:58:09;;;;;;;82.90;33.40;;;;;;;-0.49;46.47;100102.48;107679;1282;24410;-72
2022/03/15 01:00:37;;;;;;;69.80;29.10;;;;;;;-0.51;46.34;100099.91;107520;1282;22624;-75
2022/03/15 01:03:04;;;;;;;65.90;26.80;;;;;;;-0.53;46.95;100098.19;107712;1282;23137;-73
2022/03/15 01:05:32;;;;;;;49.20;21.50;;;;;;;-0.51;46.63;100097.00;107651;1282;22602;-72
2022/03/15 01:07:58;;;;;;;55.60;24.30;;;;;;;-0.48;46.26;100098.21;107645;1282;24270;-75
2022/03/15 01:10:25;;;;;;;61.60;25.50;;;;;;;-0.45;47.30;100091.38;107728;1282;22610;-72
2022/03/15 01:12:53;;;;;;;63.40;27.50;;;;;;;-0.43;47.21;100087.95;107777;1282;22671;-76
2022/03/15 01:15:21;;;;;;;52.20;23.00;;;;;;;-0.43;46.76;100092.41;107700;1282;22563;-72
2022/03/15 01:17:48;;;;;;;78.20;31.60;;;;;;;-0.41;46.67;100095.33;107687;1282;24248;-71
2022/03/15 01:20:15;;;;;;;78.20;31.90;;;;;;;-0.40;46.36;100093.44;107720;1282;22663;-76
2022/03/15 01:22:42;;;;;;;82.00;33.70;;;;;;;-0.44;47.15;100088.98;107753;1282;22565;-71
2022/03/15 01:25:09;;;;;;;81.10;31.60;;;;;;;-0.48;47.18;100085.90;107740;1282;22562;-74
2022/03/15 01:27:36;;;;;;;70.80;30.00;;;;;;;-0.50;46.85;100090.33;107680;1282;22557;-71
2022/03/15 01:30:04;;;;;;;66.80;28.60;;;;;;;-0.51;47.96;100091.35;107696;1282;22547;-71
2022/03/15 01:32:31;;;;;;;54.90;22.20;;;;;;;-0.51;47.44;100095.13;107736;1282;26641;-75
2022/03/15 01:34:58;;;;;;;40.80;18.40;;;;;;;-0.46;47.18;100088.98;107709;1282;25525;-73
2022/03/15 01:37:25;;;;;;;32.20;14.70;;;;;;;-0.36;46.89;100082.33;107774;1282;22551;-71
2022/03/15 01:39:52;;;;;;;32.50;14.00;;;;;;;-0.24;46.65;100074.98;107637;1282;22669;-71
2022/03/15 01:42:19;;;;;;;31.30;14.40;;;;;;;-0.09;46.24;100072.77;107742;1282;22555;-72
2022/03/15 01:44:48;;;;;;;26.70;12.00;;;;;;;0.10;46.16;100073.63;107554;1282;233545;-71
2022/03/15 01:47:17;;;;;;;27.90;12.40;;;;;;;0.27;46.12;100073.61;107759;1282;24264;-71
2022/03/15 01:49:44;;;;;;;35.10;14.20;;;;;;;0.46;45.88;100074.11;107712;1282;22557;-72
2022/03/15 01:52:15;;;;;;;34.40;15.30;;;;;;;0.65;45.45;100076.30;107733;1282;22539;-75
2022/03/15 01:54:44;;;;;;;29.00;14.60;;;;;;;0.87;45.53;100080.02;107688;1282;22865;-71
2022/03/15 01:57:11;;;;;;;45.80;20.50;;;;;;;1.02;45.77;100077.05;107709;1282;25197;-72
2022/03/15 01:59:39;;;;;;;51.00;21.30;;;;;;;1.10;45.55;100083.71;107698;1282;22563;-73
2022/03/15 02:02:07;;;;;;;48.90;21.70;;;;;;;1.16;45.44;100088.48;107783;1282;23413;-72
2022/03/15 02:04:37;;;;;;;48.40;20.80;;;;;;;1.19;45.66;100092.42;107751;1282;22552;-72
2022/03/15 02:07:10;;;;;;;50.60;23.50;;;;;;;1.23;45.52;100091.38;107681;1282;22715;-76
2022/03/15 02:09:37;;;;;;;55.20;24.30;;;;;;;1.26;45.45;100085.86;107641;1282;22635;-71
2022/03/15 02:12:05;;;;;;;68.70;29.50;;;;;;;1.30;45.63;100085.34;107680;1282;22807;-71
2022/03/15 02:14:32;;;;;;;68.10;29.60;;;;;;;1.33;45.66;100081.56;107739;1282;22632;-77
2022/03/15 02:17:00;;;;;;;78.10;30.30;;;;;;;1.33;45.60;100068.17;107654;1282;22553;-72
2022/03/15 02:19:27;;;;;;;107.70;44.30;;;;;;;1.31;45.86;100071.95;107700;1282;23526;-75
2022/03/15 02:21:57;;;;;;;116.10;47.80;;;;;;;1.28;46.57;100073.49;107678;1282;22611;-76
2022/03/15 02:24:24;;;;;;;109.00;46.50;;;;;;;1.23;46.02;100074.56;107704;1282;25353;-72
2022/03/15 02:26:51;;;;;;;96.80;39.80;;;;;;;1.18;46.49;100077.84;107690;1282;24215;-79
2022/03/15 02:29:20;;;;;;;84.40;39.40;;;;;;;1.14;46.02;100078.73;107662;1282;22545;-74
2022/03/15 02:31:48;;;;;;;88.00;36.70;;;;;;;1.08;46.28;100076.51;107613;1282;25346;-71
2022/03/15 02:34:18;;;;;;;77.30;35.20;;;;;;;1.02;46.56;100070.70;107685;1282;22801;-84
2022/03/15 02:36:46;;;;;;;75.30;33.80;;;;;;;0.95;46.58;100078.10;107675;1282;25244;-75
2022/03/15 02:39:13;;;;;;;71.10;31.90;;;;;;;0.89;46.66;100077.78;107729;1282;22504;-86
2022/03/15 02:41:40;;;;;;;69.40;31.80;;;;;;;0.82;46.58;100077.96;108002;1282;22566;-75
2022/03/15 02:44:08;;;;;;;66.50;30.70;;;;;;;0.76;47.01;100083.65;107995;1282;22566;-83
2022/03/15 02:46:39;;;;;;;60.20;28.10;;;;;;;0.68;47.25;100083.33;108009;1282;22542;-81
2022/03/15 02:49:09;;;;;;;56.00;26.80;;;;;;;0.61;47.18;100080.59;108018;1282;24807;-72
2022/03/15 02:51:36;;;;;;;58.60;26.20;;;;;;;0.56;47.15;100077.52;107994;1282;22556;-73
2022/03/15 02:54:08;;;;;;;64.30;27.70;;;;;;;0.52;46.97;100080.45;108018;1282;22658;-72
2022/03/15 02:56:43;;;;;;;71.80;29.90;;;;;;;0.47;46.11;100078.05;108010;1282;24267;-73
2022/03/15 02:59:14;;;;;;;72.30;31.80;;;;;;;0.39;46.67;100081.33;107986;1282;22858;-83
2022/03/15 03:01:45;;;;;;;86.90;33.70;;;;;;;0.29;47.17;100077.90;107971;1282;22717;-71
2022/03/15 03:04:14;;;;;;;77.90;33.90;;;;;;;0.21;47.22;100079.45;108031;1282;22563;-77
2022/03/15 03:06:43;;;;;;;73.90;31.40;;;;;;;0.15;47.18;100087.34;108010;1282;22545;-72
2022/03/15 03:09:11;;;;;;;69.60;30.90;;;;;;;0.08;47.11;100083.90;108004;1282;22705;-74
2022/03/15 03:11:38;;;;;;;75.60;30.40;;;;;;;0.01;47.47;100079.27;107816;1282;22581;-77
2022/03/15 03:14:06;;;;;;;66.00;28.50;;;;;;;-0.04;46.99;100083.91;107996;1282;22629;-72
2022/03/15 03:16:34;;;;;;;60.80;28.10;;;;;;;-0.11;46.65;100085.28;107832;1284;24314;-72
2022/03/15 03:19:08;;;;;;;65.60;27.70;;;;;;;-0.17;47.03;100088.52;108033;1282;22532;-72
2022/03/15 03:21:36;;;;;;;64.10;29.40;;;;;;;-0.22;46.89;100091.76;107998;1282;25264;-79
2022/03/15 03:24:08;;;;;;;67.10;29.80;;;;;;;-0.28;47.47;100099.45;108071;1282;22623;-72
2022/03/15 03:26:37;;;;;;;70.50;30.70;;;;;;;-0.34;47.75;100098.58;107996;1282;22623;-75
2022/03/15 03:29:13;;;;;;;68.20;29.20;;;;;;;-0.38;48.15;100101.84;107836;1283;24240;-72
2022/03/15 03:31:43;;;;;;;66.70;27.30;;;;;;;-0.44;48.74;100100.45;107901;1282;22644;-76
2022/03/15 03:34:12;;;;;;;60.10;26.00;;;;;;;-0.48;48.85;100099.59;107872;1284;22540;-75
2022/03/15 03:36:40;;;;;;;58.70;26.00;;;;;;;-0.52;48.98;100099.23;107884;1283;22577;-77
2022/03/15 03:39:07;;;;;;;51.00;21.80;;;;;;;-0.57;49.38;100097.17;107883;1284;22549;-80
2022/03/15 03:41:34;;;;;;;48.50;22.70;;;;;;;-0.62;49.24;100095.60;107868;1284;22570;-72
2022/03/15 03:44:01;;;;;;;44.60;22.30;;;;;;;-0.66;48.53;100099.70;107845;1284;22571;-75
2022/03/15 03:46:31;;;;;;;43.70;19.70;;;;;;;-0.71;47.76;100104.48;107847;1284;25327;-86
2022/03/15 03:48:58;;;;;;;45.50;21.80;;;;;;;-0.77;47.94;100105.98;107878;1284;24286;-73
2022/03/15 03:51:25;;;;;;;62.90;29.30;;;;;;;-0.85;48.14;100113.48;107860;1284;22540;-89
2022/03/15 03:53:52;;;;;;;83.40;37.90;;;;;;;-0.93;48.55;100115.86;107890;1284;22590;-84
2022/03/15 03:56:19;;;;;;;79.30;36.90;;;;;;;-0.98;48.81;100118.73;107856;1284;22557;-94
2022/03/15 03:58:46;;;;;;;73.30;34.00;;;;;;;-1.03;49.61;100120.23;107858;1284;22728;-92
2022/03/15 04:01:13;;;;;;;62.40;30.00;;;;;;;-1.06;49.68;100122.79;107851;1284;22575;-73
2022/03/15 04:03:40;;;;;;;52.60;22.30;;;;;;;-1.08;50.79;100122.96;107870;1284;22623;-72
2022/03/15 04:06:09;;;;;;;44.60;20.90;;;;;;;-1.10;50.53;100117.14;107900;1284;22625;-76
2022/03/15 04:08:36;;;;;;;52.80;23.80;;;;;;;-1.11;50.45;100113.70;107865;1284;22569;-72
2022/03/15 04:11:03;;;;;;;52.90;21.60;;;;;;;-1.12;50.05;100109.94;107874;1284;22700;-73
2022/03/15 04:13:30;;;;;;;62.50;25.30;;;;;;;-1.14;49.27;100113.00;107849;1284;24267;-80
2022/03/15 04:15:57;;;;;;;58.20;26.70;;;;;;;-1.17;48.86;100117.60;107837;1284;22597;-72
2022/03/15 04:18:25;;;;;;;50.40;24.80;;;;;;;-1.23;50.28;100120.30;107858;1284;22570;-89
2022/03/15 04:20:52;;;;;;;59.80;26.70;;;;;;;-1.27;50.14;100119.09;107859;1284;24233;-77
2022/03/15 04:23:19;;;;;;;55.10;25.60;;;;;;;-1.30;50.35;100119.58;107882;1284;22794;-82
2022/03/15 04:25:46;;;;;;;67.60;29.10;;;;;;;-1.32;50.23;100125.71;107849;1284;23227;-73
2022/03/15 04:28:14;;;;;;;61.00;28.50;;;;;;;-1.34;49.28;100127.06;107872;1284;22567;-80
2022/03/15 04:30:41;;;;;;;61.40;28.10;;;;;;;-1.36;50.44;100132.37;107854;1283;22564;-87
2022/03/15 04:33:08;;;;;;;59.70;27.90;;;;;;;-1.39;50.60;100124.81;107912;1284;22564;-89
2022/03/15 04:35:35;;;;;;;62.90;28.40;;;;;;;-1.42;50.53;100124.27;107969;1284;23068;-80
2022/03/15 04:38:03;;;;;;;56.70;25.70;;;;;;;-1.45;51.27;100125.47;107994;1284;22595;-73
2022/03/15 04:40:30;;;;;;;58.40;27.30;;;;;;;-1.47;51.24;100122.20;108018;1282;24255;-76
2022/03/15 04:42:57;;;;;;;61.40;25.50;;;;;;;-1.48;50.58;100120.66;107994;1284;22566;-84
2022/03/15 04:45:25;;;;;;;55.10;26.40;;;;;;;-1.49;50.65;100125.09;108014;1284;22538;-92
2022/03/15 04:47:51;;;;;;;59.60;28.30;;;;;;;-1.52;51.19;100122.00;108012;1284;22579;-73
2022/03/15 04:50:19;;;;;;;60.60;28.10;;;;;;;-1.54;51.05;100118.75;108009;1284;24210;-76
2022/03/15 04:52:46;;;;;;;55.70;25.60;;;;;;;-1.54;51.46;100122.52;107995;1282;25486;-92
2022/03/15 04:55:13;;;;;;;51.20;22.80;;;;;;;-1.55;51.36;100125.06;108003;1283;22625;-74
2022/03/15 04:57:40;;;;;;;44.00;19.90;;;;;;;-1.56;52.53;100128.98;108007;1284;23236;-72
2022/03/15 05:00:09;;;;;;;54.40;24.70;;;;;;;-1.56;51.01;100133.59;108004;1284;25293;-88
2022/03/15 05:02:40;;;;;;;57.60;25.20;;;;;;;-1.57;50.34;100135.97;107995;1284;22642;-72
2022/03/15 05:05:08;;;;;;;57.20;25.80;;;;;;;-1.62;50.81;100139.17;107943;1283;22714;-71
2022/03/15 05:07:35;;;;;;;58.20;27.40;;;;;;;-1.66;50.85;100134.20;107773;1282;22580;-80
2022/03/15 05:12:48;;;;;;;55.10;25.00;;;;;;;-1.67;51.05;100136.56;107706;1284;22553;-77
2022/03/15 05:15:16;;;;;;;39.80;20.00;;;;;;;-1.66;51.75;100136.75;107772;1282;22552;-89
2022/03/15 05:17:43;;;;;;;40.40;19.70;;;;;;;-1.64;52.83;100135.06;107710;1282;22595;-72
2022/03/15 05:20:10;;;;;;;39.00;19.00;;;;;;;-1.62;53.37;100130.14;107768;1283;24265;-81
2022/03/15 05:22:37;;;;;;;56.30;23.80;;;;;;;-1.60;52.36;100133.21;107711;1284;22659;-71
2022/03/15 05:25:05;;;;;;;35.20;17.90;;;;;;;-1.55;53.04;100135.98;107742;1284;22525;-78
2022/03/15 05:27:33;;;;;;;42.20;19.30;;;;;;;-1.50;53.35;100136.88;107767;1284;22540;-72
2022/03/15 05:30:01;;;;;;;58.90;27.10;;;;;;;-1.42;51.73;100138.47;107767;1284;22602;-80
2022/03/15 05:32:28;;;;;;;67.30;29.70;;;;;;;-1.34;51.23;100140.06;107687;1284;22543;-71
2022/03/15 05:34:56;;;;;;;72.60;31.50;;;;;;;-1.23;51.39;100142.02;107752;1282;22570;-71
2022/03/15 05:37:23;;;;;;;65.90;28.60;;;;;;;-1.11;51.93;100142.93;107711;1282;22609;-71
2022/03/15 05:39:50;;;;;;;64.90;30.00;;;;;;;-0.93;52.27;100143.72;107739;1282;25266;-71
2022/03/15 05:42:18;;;;;;;66.80;29.90;;;;;;;-0.73;52.41;100137.49;107733;1282;22557;-71
2022/03/15 05:44:46;;;;;;;63.70;29.70;;;;;;;-0.52;52.62;100135.67;107777;1283;24267;-71
2022/03/15 05:47:14;;;;;;;67.00;30.40;;;;;;;-0.27;52.83;100132.66;108211;1282;26503;-72
2022/03/15 05:49:42;;;;;;;67.50;29.10;;;;;;;-0.04;53.14;100133.40;107727;1284;22587;-71
2022/03/15 05:52:09;;;;;;;64.30;31.30;;;;;;;0.23;53.25;100131.02;107696;1284;22994;-87
2022/03/15 05:54:37;;;;;;;63.60;30.20;;;;;;;0.51;53.39;100130.50;107675;1282;22717;-72
2022/03/15 05:57:04;;;;;;;70.20;32.00;;;;;;;0.83;53.40;100129.25;107749;1282;22738;-73
2022/03/15 05:59:31;;;;;;;87.20;34.90;;;;;;;1.13;53.40;100125.21;107773;1282;22610;-74
2022/03/15 06:01:58;;;;;;;184.00;50.60;;;;;;;1.43;53.27;100117.04;107763;1282;22596;-91
2022/03/15 06:04:26;;;;;;;180.40;55.00;;;;;;;1.74;53.17;100116.69;107763;1282;22666;-72
2022/03/15 06:06:57;;;;;;;175.40;53.10;;;;;;;2.02;52.85;100119.25;107726;1282;24267;-72
2022/03/15 06:09:25;;;;;;;207.70;59.30;;;;;;;2.30;52.49;100117.67;107726;1282;25397;-75
2022/03/15 06:11:52;;;;;;;201.00;60.60;;;;;;;2.57;52.04;100121.05;107763;1282;22724;-72
2022/03/15 06:14:20;;;;;;;230.30;71.60;;;;;;;2.78;51.54;100118.25;107747;1282;24280;-72
2022/03/15 06:16:47;;;;;;;273.20;82.90;;;;;;;2.86;50.99;100114.73;107720;1282;22548;-77
2022/03/15 06:19:15;;;;;;;234.80;75.20;;;;;;;2.86;50.51;100116.11;107670;1282;22629;-72
2022/03/15 06:21:42;;;;;;;222.60;68.30;;;;;;;2.82;50.17;100117.35;107745;1282;22787;-72
2022/03/15 06:24:10;;;;;;;207.40;67.90;;;;;;;2.76;50.06;100112.59;107691;1283;22570;-73
2022/03/15 06:26:39;;;;;;;195.10;66.60;;;;;;;2.69;50.08;100114.73;107769;1282;22547;-72
2022/03/15 06:29:06;;;;;;;174.20;57.00;;;;;;;2.56;50.08;100114.86;107721;1282;22548;-72
2022/03/15 06:31:33;;;;;;;153.30;53.50;;;;;;;2.44;50.19;100116.00;107660;1283;22593;-72
2022/03/15 06:34:01;;;;;;;141.70;51.90;;;;;;;2.35;50.27;100123.81;107679;1282;23064;-72
2022/03/15 06:36:28;;;;;;;119.40;49.00;;;;;;;2.35;50.11;100118.65;107720;1282;22663;-72
2022/03/15 06:38:56;;;;;;;102.20;44.20;;;;;;;2.35;49.93;100118.30;107732;1282;25129;-73
2022/03/15 06:41:23;;;;;;;105.30;44.10;;;;;;;2.43;49.82;100119.27;107745;1282;24639;-72
2022/03/15 06:43:50;;;;;;;82.40;34.60;;;;;;;2.54;49.58;100120.90;107781;1282;22644;-72
2022/03/15 06:46:17;;;;;;;71.20;31.30;;;;;;;2.67;49.18;100127.14;107771;1282;22544;-73
2022/03/15 06:48:45;;;;;;;66.40;30.10;;;;;;;2.83;49.02;100131.29;107738;1282;22553;-72
2022/03/15 06:51:12;;;;;;;77.10;34.20;;;;;;;2.99;48.82;100131.11;107714;1282;22572;-76
2022/03/15 06:53:40;;;;;;;49.70;23.50;;;;;;;3.15;48.78;100126.98;107706;1282;22791;-71
2022/03/15 06:56:08;;;;;;;37.70;19.80;;;;;;;3.32;48.25;100124.88;107738;1282;22749;-73
2022/03/15 06:58:35;;;;;;;42.20;20.60;;;;;;;3.53;47.53;100127.89;107723;1282;23208;-80
2022/03/15 07:01:02;;;;;;;38.40;18.70;;;;;;;3.74;47.13;100123.64;107720;1282;22548;-75
2022/03/15 07:03:29;;;;;;;35.30;19.30;;;;;;;3.94;46.42;100122.84;107709;1282;22587;-73
2022/03/15 07:05:56;;;;;;;37.50;17.50;;;;;;;4.15;46.48;100120.11;107719;1282;22569;-72
2022/03/15 07:08:23;;;;;;;35.20;18.30;;;;;;;4.33;46.04;100121.88;107734;1282;22575;-71
2022/03/15 07:10:51;;;;;;;39.90;19.90;;;;;;;4.49;45.96;100119.55;107970;1282;22657;-85
2022/03/15 07:13:19;;;;;;;38.60;17.20;;;;;;;4.63;45.35;100119.83;108034;1282;23009;-73
2022/03/15 07:15:46;;;;;;;36.90;20.10;;;;;;;4.79;45.45;100116.42;108052;1282;22565;-73
2022/03/15 07:18:15;;;;;;;32.50;17.40;;;;;;;4.94;44.55;100113.73;108025;1282;22579;-73
2022/03/15 07:20:42;;;;;;;34.20;17.00;;;;;;;5.09;45.13;100118.64;108018;1282;22626;-73
2022/03/15 07:23:09;;;;;;;34.10;18.30;;;;;;;5.21;43.62;100121.86;108011;1282;22540;-72
2022/03/15 07:25:36;;;;;;;26.80;15.10;;;;;;;5.35;43.61;100123.98;108014;1282;22834;-73
2022/03/15 07:28:03;;;;;;;34.80;17.80;;;;;;;5.47;43.68;100121.13;108016;1282;23233;-76
2022/03/15 07:30:30;;;;;;;30.80;16.40;;;;;;;5.59;43.55;100119.15;107979;1282;26618;-81
2022/03/15 07:32:59;;;;;;;54.60;16.80;;;;;;;5.69;43.42;100121.01;107925;1282;22555;-73
2022/03/15 07:35:27;;;;;;;34.90;16.80;;;;;;;5.79;43.21;100117.00;107985;1282;22543;-77
2022/03/15 07:37:56;;;;;;;36.70;18.00;;;;;;;5.89;43.01;100116.10;108014;1282;22553;-72
2022/03/15 07:40:26;;;;;;;32.60;17.10;;;;;;;6.00;41.74;100113.42;108046;1282;25434;-76
2022/03/15 07:42:53;;;;;;;38.30;19.20;;;;;;;6.16;42.34;100110.13;108007;1282;22559;-72
2022/03/15 07:45:20;;;;;;;40.50;20.30;;;;;;;6.28;42.34;100107.73;107884;1282;24474;-72
2022/03/15 07:47:48;;;;;;;38.40;18.90;;;;;;;6.40;41.82;100104.34;107627;1283;22622;-74
2022/03/15 07:50:15;;;;;;;36.00;18.10;;;;;;;6.51;42.04;100099.20;107700;1282;22632;-80
2022/03/15 07:52:42;;;;;;;42.20;18.40;;;;;;;6.62;41.79;100100.82;107677;1282;22607;-72
2022/03/15 07:55:09;;;;;;;36.40;18.10;;;;;;;6.75;41.67;100103.10;107729;1282;22581;-80
2022/03/15 07:57:36;;;;;;;36.60;19.30;;;;;;;6.88;41.56;100098.23;107684;1282;22549;-73
2022/03/15 08:00:04;;;;;;;37.80;19.20;;;;;;;7.00;41.53;100095.65;107667;1282;22700;-79
2022/03/15 08:02:31;;;;;;;38.50;18.70;;;;;;;7.10;41.09;100096.23;107685;1282;22629;-78
2022/03/15 08:04:58;;;;;;;34.40;18.30;;;;;;;7.22;41.39;100094.70;107688;1282;27677;-74
2022/03/15 08:07:25;;;;;;;35.30;17.60;;;;;;;7.32;41.16;100090.96;107758;1282;22733;-76
2022/03/15 08:09:54;;;;;;;37.70;18.40;;;;;;;7.39;40.64;100084.85;107688;1282;23137;-74
2022/03/15 08:12:21;;;;;;;31.60;17.30;;;;;;;7.49;40.86;100079.85;107689;1282;22558;-77
2022/03/15 08:14:48;;;;;;;29.80;15.90;;;;;;;7.59;40.58;100074.02;107676;1281;23157;-74
2022/03/15 08:17:15;;;;;;;30.90;18.00;;;;;;;7.68;40.33;100071.30;107707;1282;22586;-73
2022/03/15 08:19:43;;;;;;;32.30;18.20;;;;;;;7.80;40.64;100068.70;107748;1282;22602;-73
2022/03/15 08:22:10;;;;;;;32.80;16.60;;;;;;;7.94;40.50;100068.78;107699;1282;22709;-73
2022/03/15 08:24:37;;;;;;;29.40;15.80;;;;;;;8.03;40.24;100062.39;107718;1282;24503;-72
2022/03/15 08:27:04;;;;;;;29.30;15.80;;;;;;;8.14;40.33;100064.98;107719;1282;22811;-73
2022/03/15 08:29:32;;;;;;;27.90;16.70;;;;;;;8.25;39.95;100063.42;107718;1282;23087;-73
2022/03/15 08:31:59;;;;;;;28.80;17.00;;;;;;;8.32;39.83;100059.91;107748;1282;22626;-76
2022/03/15 08:34:26;;;;;;;29.50;17.60;;;;;;;8.43;39.98;100061.30;107673;1282;22628;-72
2022/03/15 08:36:53;;;;;;;30.40;16.60;;;;;;;8.53;39.83;100056.42;107701;1282;24253;-72
2022/03/15 08:39:23;;;;;;;29.30;14.70;;;;;;;8.60;40.46;100053.92;107674;1282;22576;-72
2022/03/15 08:41:52;;;;;;;28.00;15.80;;;;;;;8.68;39.60;100054.15;107715;1282;25448;-71
2022/03/15 08:44:21;;;;;;;24.70;15.30;;;;;;;8.70;39.78;100053.06;107766;1282;22629;-71
2022/03/15 08:46:51;;;;;;;27.70;14.80;;;;;;;8.74;39.68;100052.58;107760;1282;22567;-76
2022/03/15 08:49:20;;;;;;;28.90;16.20;;;;;;;8.78;39.85;100050.89;107722;1282;22582;-78
2022/03/15 08:51:48;;;;;;;28.10;16.80;;;;;;;8.82;40.13;100048.30;107806;1282;22636;-75
2022/03/15 08:54:17;;;;;;;33.80;19.60;;;;;;;8.87;39.26;100047.05;107722;1282;23806;-77
2022/03/15 08:56:44;;;;;;;41.70;23.40;;;;;;;8.95;39.49;100046.07;107665;1279;22711;-80
2022/03/15 08:59:15;;;;;;;36.30;22.50;;;;;;;9.04;39.73;100043.84;107715;1282;22565;-72
2022/03/15 09:01:43;;;;;;;37.30;21.50;;;;;;;9.13;39.55;100041.45;107656;1282;22730;-76
2022/03/15 09:04:11;;;;;;;33.00;18.90;;;;;;;9.19;39.55;100039.29;107968;1282;22570;-74
2022/03/15 09:06:38;;;;;;;26.50;15.20;;;;;;;9.25;39.27;100032.80;107676;1282;25170;-78
2022/03/15 09:09:05;;;;;;;26.20;15.30;;;;;;;9.28;39.11;100031.81;107652;1282;22531;-71
2022/03/15 09:11:33;;;;;;;25.80;15.80;;;;;;;9.30;39.44;100030.86;107706;1282;24332;-81
2022/03/15 09:14:03;;;;;;;29.10;17.30;;;;;;;9.37;38.98;100028.16;107651;1282;22737;-70
2022/03/15 09:16:39;;;;;;;36.30;18.30;;;;;;;9.46;39.23;100029.93;107631;1282;22541;-70
2022/03/15 09:19:09;;;;;;;35.10;20.50;;;;;;;9.56;39.21;100022.59;107608;1282;24250;-73
2022/03/15 09:21:36;;;;;;;29.50;19.20;;;;;;;9.63;38.94;100018.46;107622;1282;22556;-70
2022/03/15 09:24:04;;;;;;;30.70;19.20;;;;;;;9.69;39.03;100013.70;107592;1282;22739;-79
2022/03/15 09:26:32;;;;;;;30.00;17.50;;;;;;;9.76;39.18;100010.13;107622;1282;22571;-74
2022/03/15 09:29:00;;;;;;;29.90;17.50;;;;;;;9.84;39.19;100008.27;107619;1282;22585;-72
2022/03/15 09:31:27;;;;;;;27.30;17.30;;;;;;;9.83;38.72;100004.62;107782;1282;22788;-70
2022/03/15 09:33:54;;;;;;;28.20;17.60;;;;;;;9.86;38.65;99999.12;107897;1282;22565;-72
2022/03/15 09:36:21;;;;;;;28.10;17.60;;;;;;;9.92;38.94;99995.38;107923;1282;22541;-71
2022/03/15 09:38:48;;;;;;;25.20;15.10;;;;;;;9.99;39.00;99998.58;107942;1282;22564;-72
2022/03/15 09:41:19;;;;;;;27.00;15.40;;;;;;;10.09;39.03;99997.13;107919;1282;22565;-73
2022/03/15 09:43:47;;;;;;;23.70;15.10;;;;;;;10.20;38.74;99996.02;107921;1282;22575;-71
2022/03/15 09:46:17;;;;;;;25.40;15.40;;;;;;;10.29;38.53;99989.17;107925;1282;22630;-70
2022/03/15 09:48:46;;;;;;;27.90;16.00;;;;;;;10.36;38.06;99990.96;107957;1282;22560;-84
2022/03/15 09:51:14;;;;;;;25.50;14.80;;;;;;;10.46;38.09;99992.95;107879;1282;22625;-84
2022/03/15 09:53:42;;;;;;;22.70;14.30;;;;;;;10.59;37.78;99986.66;107929;1282;22547;-74
2022/03/15 09:56:09;;;;;;;28.50;15.10;;;;;;;10.69;37.71;99981.84;107923;1282;22544;-80
2022/03/15 09:58:36;;;;;;;42.00;17.10;;;;;;;10.84;38.29;99981.68;107910;1282;22547;-70
2022/03/15 10:01:03;;;;;;;30.60;16.70;;;;;;;10.98;38.37;99977.05;107926;1282;22623;-74
2022/03/15 10:03:31;;;;;;;29.40;15.00;;;;;;;11.12;38.07;99972.22;107906;1282;22672;-70
2022/03/15 10:06:06;;;;;;;21.80;12.80;;;;;;;11.21;37.67;99967.43;107889;1282;22713;-71
2022/03/15 10:08:35;;;;;;;24.80;13.60;;;;;;;11.29;37.72;99965.31;107929;1282;22692;-71
2022/03/15 10:11:02;;;;;;;26.10;14.20;;;;;;;11.36;37.67;99959.23;107944;1282;22548;-73
2022/03/15 10:13:29;;;;;;;24.10;14.70;;;;;;;11.46;37.68;99953.19;107917;1282;22544;-74
2022/03/15 10:16:03;;;;;;;25.80;15.00;;;;;;;11.55;37.35;99950.08;107899;1282;22626;-74
2022/03/15 10:18:30;;;;;;;22.90;13.70;;;;;;;11.66;37.58;99951.30;107934;1282;22675;-78
2022/03/15 10:20:58;;;;;;;23.50;13.00;;;;;;;11.73;37.37;99947.83;107924;1282;22590;-72
2022/03/15 10:23:29;;;;;;;19.60;11.60;;;;;;;11.81;37.39;99945.94;107910;1282;22552;-80
2022/03/15 10:25:58;;;;;;;24.60;12.90;;;;;;;11.87;37.36;99941.23;107916;1282;24245;-79
2022/03/15 10:28:25;;;;;;;23.10;13.00;;;;;;;11.91;37.09;99937.19;107924;1282;22739;-80
2022/03/15 10:30:53;;;;;;;23.60;13.40;;;;;;;11.91;37.00;99932.14;107910;1282;22595;-72
2022/03/15 10:33:20;;;;;;;23.70;12.40;;;;;;;11.90;36.96;99930.96;107926;1282;22643;-74
2022/03/15 10:35:49;;;;;;;26.40;14.20;;;;;;;11.93;37.05;99925.06;107925;1282;22615;-81
2022/03/15 10:38:18;;;;;;;20.30;11.80;;;;;;;11.94;36.92;99915.59;107924;1281;22494;-85
2022/03/15 10:40:48;;;;;;;17.80;11.40;;;;;;;11.99;36.98;99914.77;107969;1282;22592;-76
2022/03/15 10:43:24;;;;;;;23.00;11.40;;;;;;;11.97;37.32;99913.70;107969;1282;22565;-84
2022/03/15 10:46:01;;;;;;;19.40;10.30;;;;;;;12.01;37.35;99908.38;107951;1282;22635;-82
2022/03/15 10:48:31;;;;;;;18.70;11.50;;;;;;;11.95;37.11;99901.55;107906;1282;22570;-81
2022/03/15 10:51:19;;;;;;;22.10;11.50;;;;;;;11.95;37.25;99905.77;107943;1282;22647;-71
2022/03/15 10:53:48;;;;;;;20.30;11.30;;;;;;;12.02;37.54;99898.95;107953;1282;24329;-73
2022/03/15 10:56:20;;;;;;;20.20;11.90;;;;;;;12.08;36.83;99893.05;107898;1282;23888;-76
2022/03/15 10:58:50;;;;;;;20.30;11.70;;;;;;;12.12;37.15;99889.70;107914;1282;22810;-72
2022/03/15 11:01:23;;;;;;;22.20;11.90;;;;;;;12.17;37.10;99882.26;107901;1282;25255;-72
2022/03/15 11:03:57;;;;;;;21.40;12.10;;;;;;;12.30;36.91;99881.77;107949;1282;22553;-72
2022/03/15 11:06:32;;;;;;;18.60;11.50;;;;;;;12.37;36.90;99878.09;107922;1282;25364;-74
2022/03/15 11:09:00;;;;;;;20.10;10.90;;;;;;;12.45;37.29;99877.31;107951;1282;22604;-72
2022/03/15 11:11:28;;;;;;;18.50;11.20;;;;;;;12.55;37.26;99873.65;107901;1282;22560;-73
2022/03/15 11:14:06;;;;;;;18.90;11.20;;;;;;;12.63;36.89;99867.77;107923;1281;22544;-74